sensor_id;sensor_type;location;lat;lon;timestamp;P1;durP1;ratioP1;P2;durP2;ratioP2
8331;SDS011;4203;48.144;14.118;2023-01-16T00:01:26;1.67;;;1.57;;
8331;SDS011;4203;48.144;14.118;2023-01-16T00:03:54;1.60;;;1.50;;
8331;SDS011;4203;48.144;14.118;2023-01-16T00:06:21;1.20;;;1.10;;
8331;SDS011;4203;48.144;14.118;2023-01-16T00:08:58;2.03;;;1.30;;
8331;SDS011;4203;48.144;14.118;2023-01-16T00:11:25;1.50;;;1.40;;
8331;SDS011;4203;48.144;14.118;2023-01-16T00:13:52;1.60;;;1.50;;
8331;SDS011;4203;48.144;14.118;2023-01-16T00:16:22;1.60;;;1.43;;
8331;SDS011;4203;48.144;14.118;2023-01-16T00:18:49;1.30;;;1.23;;
8331;SDS011;4203;48.144;14.118;2023-01-16T00:21:16;1.50;;;1.40;;
8331;SDS011;4203;48.144;14.118;2023-01-16T00:23:44;1.53;;;1.43;;
8331;SDS011;4203;48.144;14.118;2023-01-16T00:26:11;1.40;;;1.30;;
8331;SDS011;4203;48.144;14.118;2023-01-16T00:28:39;1.70;;;1.60;;
8331;SDS011;4203;48.144;14.118;2023-01-16T00:31:06;2.40;;;1.50;;
8331;SDS011;4203;48.144;14.118;2023-01-16T00:33:35;1.77;;;1.63;;
8331;SDS011;4203;48.144;14.118;2023-01-16T00:36:02;3.87;;;1.50;;
8331;SDS011;4203;48.144;14.118;2023-01-16T00:38:30;2.10;;;2.00;;
8331;SDS011;4203;48.144;14.118;2023-01-16T00:40:58;2.77;;;2.57;;
8331;SDS011;4203;48.144;14.118;2023-01-16T00:43:25;2.77;;;2.57;;
8331;SDS011;4203;48.144;14.118;2023-01-16T00:45:52;3.90;;;3.60;;
8331;SDS011;4203;48.144;14.118;2023-01-16T00:48:21;5.20;;;4.70;;
8331;SDS011;4203;48.144;14.118;2023-01-16T00:50:50;3.87;;;3.50;;
8331;SDS011;4203;48.144;14.118;2023-01-16T00:53:17;8.17;;;5.57;;
8331;SDS011;4203;48.144;14.118;2023-01-16T00:55:44;6.40;;;5.90;;
8331;SDS011;4203;48.144;14.118;2023-01-16T00:58:11;8.50;;;7.67;;
8331;SDS011;4203;48.144;14.118;2023-01-16T01:00:39;7.53;;;6.70;;
8331;SDS011;4203;48.144;14.118;2023-01-16T01:03:06;7.17;;;5.57;;
8331;SDS011;4203;48.144;14.118;2023-01-16T01:05:34;6.07;;;5.47;;
8331;SDS011;4203;48.144;14.118;2023-01-16T01:08:06;4.73;;;4.33;;
8331;SDS011;4203;48.144;14.118;2023-01-16T01:10:35;2.97;;;2.67;;
8331;SDS011;4203;48.144;14.118;2023-01-16T01:13:03;2.93;;;2.73;;
8331;SDS011;4203;48.144;14.118;2023-01-16T01:15:30;2.90;;;2.70;;
8331;SDS011;4203;48.144;14.118;2023-01-16T01:17:58;2.77;;;2.57;;
8331;SDS011;4203;48.144;14.118;2023-01-16T01:20:25;2.37;;;2.20;;
8331;SDS011;4203;48.144;14.118;2023-01-16T01:22:53;3.33;;;2.83;;
8331;SDS011;4203;48.144;14.118;2023-01-16T01:25:21;2.10;;;2.00;;
8331;SDS011;4203;48.144;14.118;2023-01-16T01:27:51;2.27;;;2.10;;
8331;SDS011;4203;48.144;14.118;2023-01-16T01:30:18;3.40;;;3.20;;
8331;SDS011;4203;48.144;14.118;2023-01-16T01:32:45;3.80;;;3.50;;
8331;SDS011;4203;48.144;14.118;2023-01-16T01:35:13;3.70;;;3.40;;
8331;SDS011;4203;48.144;14.118;2023-01-16T01:40:12;5.53;;;4.27;;
8331;SDS011;4203;48.144;14.118;2023-01-16T01:42:41;3.93;;;3.63;;
8331;SDS011;4203;48.144;14.118;2023-01-16T01:45:14;4.87;;;3.70;;
8331;SDS011;4203;48.144;14.118;2023-01-16T01:47:45;4.07;;;2.97;;
8331;SDS011;4203;48.144;14.118;2023-01-16T01:50:21;3.30;;;3.03;;
8331;SDS011;4203;48.144;14.118;2023-01-16T01:52:55;3.37;;;3.07;;
8331;SDS011;4203;48.144;14.118;2023-01-16T01:55:25;3.30;;;3.00;;
8331;SDS011;4203;48.144;14.118;2023-01-16T01:57:55;3.10;;;2.80;;
8331;SDS011;4203;48.144;14.118;2023-01-16T02:00:25;2.80;;;2.47;;
8331;SDS011;4203;48.144;14.118;2023-01-16T02:02:55;2.83;;;2.63;;
8331;SDS011;4203;48.144;14.118;2023-01-16T02:05:29;2.40;;;2.20;;
8331;SDS011;4203;48.144;14.118;2023-01-16T02:08:01;3.40;;;3.20;;
8331;SDS011;4203;48.144;14.118;2023-01-16T02:10:31;3.03;;;2.83;;
8331;SDS011;4203;48.144;14.118;2023-01-16T02:13:05;3.30;;;3.00;;
8331;SDS011;4203;48.144;14.118;2023-01-16T02:15:32;4.23;;;3.83;;
8331;SDS011;4203;48.144;14.118;2023-01-16T02:18:00;4.67;;;4.27;;
8331;SDS011;4203;48.144;14.118;2023-01-16T02:20:51;3.70;;;3.40;;
8331;SDS011;4203;48.144;14.118;2023-01-16T02:23:56;3.10;;;2.80;;
8331;SDS011;4203;48.144;14.118;2023-01-16T02:27:06;3.80;;;3.50;;
8331;SDS011;4203;48.144;14.118;2023-01-16T02:29:48;3.87;;;3.53;;
8331;SDS011;4203;48.144;14.118;2023-01-16T02:32:40;3.67;;;3.33;;
8331;SDS011;4203;48.144;14.118;2023-01-16T02:35:21;3.20;;;2.90;;
8331;SDS011;4203;48.144;14.118;2023-01-16T02:38:13;3.90;;;3.50;;
8331;SDS011;4203;48.144;14.118;2023-01-16T02:40:50;3.00;;;2.80;;
8331;SDS011;4203;48.144;14.118;2023-01-16T02:43:28;2.87;;;2.67;;
8331;SDS011;4203;48.144;14.118;2023-01-16T02:46:05;2.87;;;2.40;;
8331;SDS011;4203;48.144;14.118;2023-01-16T02:48:41;3.20;;;2.90;;
8331;SDS011;4203;48.144;14.118;2023-01-16T02:51:19;2.40;;;2.30;;
8331;SDS011;4203;48.144;14.118;2023-01-16T02:53:58;3.00;;;2.30;;
8331;SDS011;4203;48.144;14.118;2023-01-16T02:56:36;2.53;;;2.33;;
8331;SDS011;4203;48.144;14.118;2023-01-16T02:59:07;2.73;;;2.60;;
8331;SDS011;4203;48.144;14.118;2023-01-16T03:01:36;2.33;;;2.03;;
8331;SDS011;4203;48.144;14.118;2023-01-16T03:07:24;2.23;;;2.03;;
8331;SDS011;4203;48.144;14.118;2023-01-16T03:10:14;2.03;;;1.93;;
8331;SDS011;4203;48.144;14.118;2023-01-16T03:12:54;1.97;;;1.87;;
8331;SDS011;4203;48.144;14.118;2023-01-16T03:15:34;2.90;;;2.00;;
8331;SDS011;4203;48.144;14.118;2023-01-16T03:18:15;2.27;;;2.17;;
8331;SDS011;4203;48.144;14.118;2023-01-16T03:20:53;2.50;;;2.30;;
8331;SDS011;4203;48.144;14.118;2023-01-16T03:23:28;2.40;;;2.20;;
8331;SDS011;4203;48.144;14.118;2023-01-16T03:26:07;2.60;;;2.40;;
8331;SDS011;4203;48.144;14.118;2023-01-16T03:28:42;2.63;;;2.40;;
8331;SDS011;4203;48.144;14.118;2023-01-16T03:31:17;2.57;;;2.10;;
8331;SDS011;4203;48.144;14.118;2023-01-16T03:33:51;2.77;;;2.57;;
8331;SDS011;4203;48.144;14.118;2023-01-16T03:36:30;2.53;;;2.37;;
8331;SDS011;4203;48.144;14.118;2023-01-16T03:39:02;2.53;;;2.37;;
8331;SDS011;4203;48.144;14.118;2023-01-16T03:41:32;2.77;;;2.67;;
8331;SDS011;4203;48.144;14.118;2023-01-16T03:44:03;2.93;;;2.20;;
8331;SDS011;4203;48.144;14.118;2023-01-16T03:46:36;2.13;;;1.93;;
8331;SDS011;4203;48.144;14.118;2023-01-16T03:49:10;2.93;;;2.47;;
8331;SDS011;4203;48.144;14.118;2023-01-16T03:51:42;2.43;;;2.23;;
8331;SDS011;4203;48.144;14.118;2023-01-16T03:54:15;2.10;;;2.00;;
8331;SDS011;4203;48.144;14.118;2023-01-16T03:56:54;2.27;;;2.10;;
8331;SDS011;4203;48.144;14.118;2023-01-16T03:59:26;2.90;;;2.00;;
8331;SDS011;4203;48.144;14.118;2023-01-16T04:01:54;2.10;;;2.00;;
8331;SDS011;4203;48.144;14.118;2023-01-16T04:04:24;1.80;;;1.70;;
8331;SDS011;4203;48.144;14.118;2023-01-16T04:06:56;3.00;;;2.70;;
8331;SDS011;4203;48.144;14.118;2023-01-16T04:09:31;2.87;;;2.77;;
8331;SDS011;4203;48.144;14.118;2023-01-16T04:12:04;3.03;;;2.73;;
8331;SDS011;4203;48.144;14.118;2023-01-16T04:14:33;2.87;;;2.57;;
8331;SDS011;4203;48.144;14.118;2023-01-16T04:17:01;4.00;;;2.97;;
8331;SDS011;4203;48.144;14.118;2023-01-16T04:19:30;4.37;;;2.90;;
8331;SDS011;4203;48.144;14.118;2023-01-16T04:22:03;2.60;;;2.40;;
8331;SDS011;4203;48.144;14.118;2023-01-16T04:24:31;2.67;;;2.47;;
8331;SDS011;4203;48.144;14.118;2023-01-16T04:26:59;2.83;;;2.37;;
8331;SDS011;4203;48.144;14.118;2023-01-16T04:29:26;3.13;;;2.87;;
8331;SDS011;4203;48.144;14.118;2023-01-16T04:31:53;3.23;;;2.60;;
8331;SDS011;4203;48.144;14.118;2023-01-16T04:34:20;2.93;;;2.77;;
8331;SDS011;4203;48.144;14.118;2023-01-16T04:36:47;2.83;;;2.63;;
8331;SDS011;4203;48.144;14.118;2023-01-16T04:39:16;3.60;;;3.33;;
8331;SDS011;4203;48.144;14.118;2023-01-16T04:41:43;2.80;;;2.50;;
8331;SDS011;4203;48.144;14.118;2023-01-16T04:44:15;3.47;;;3.17;;
8331;SDS011;4203;48.144;14.118;2023-01-16T04:46:43;3.20;;;3.00;;
8331;SDS011;4203;48.144;14.118;2023-01-16T04:49:10;3.50;;;3.20;;
8331;SDS011;4203;48.144;14.118;2023-01-16T04:51:37;4.57;;;3.27;;
8331;SDS011;4203;48.144;14.118;2023-01-16T04:54:05;4.00;;;3.60;;
8331;SDS011;4203;48.144;14.118;2023-01-16T04:56:34;3.00;;;2.37;;
8331;SDS011;4203;48.144;14.118;2023-01-16T04:59:03;2.13;;;2.03;;
8331;SDS011;4203;48.144;14.118;2023-01-16T05:01:30;5.93;;;2.30;;
8331;SDS011;4203;48.144;14.118;2023-01-16T05:04:00;2.53;;;2.43;;
8331;SDS011;4203;48.144;14.118;2023-01-16T05:06:27;2.70;;;2.50;;
8331;SDS011;4203;48.144;14.118;2023-01-16T05:08:54;2.80;;;2.60;;
8331;SDS011;4203;48.144;14.118;2023-01-16T05:11:21;2.97;;;2.73;;
8331;SDS011;4203;48.144;14.118;2023-01-16T05:13:50;3.00;;;2.80;;
8331;SDS011;4203;48.144;14.118;2023-01-16T05:16:17;3.20;;;2.90;;
8331;SDS011;4203;48.144;14.118;2023-01-16T05:18:45;3.03;;;2.70;;
8331;SDS011;4203;48.144;14.118;2023-01-16T05:21:13;2.70;;;2.53;;
8331;SDS011;4203;48.144;14.118;2023-01-16T05:23:40;2.90;;;2.70;;
8331;SDS011;4203;48.144;14.118;2023-01-16T05:26:07;3.33;;;3.03;;
8331;SDS011;4203;48.144;14.118;2023-01-16T05:28:35;3.73;;;3.10;;
8331;SDS011;4203;48.144;14.118;2023-01-16T05:31:04;2.80;;;2.60;;
8331;SDS011;4203;48.144;14.118;2023-01-16T05:33:31;6.37;;;2.70;;
8331;SDS011;4203;48.144;14.118;2023-01-16T05:35:58;3.30;;;2.60;;
8331;SDS011;4203;48.144;14.118;2023-01-16T05:38:25;3.20;;;2.83;;
8331;SDS011;4203;48.144;14.118;2023-01-16T05:40:53;3.50;;;3.20;;
8331;SDS011;4203;48.144;14.118;2023-01-16T05:43:20;3.17;;;2.93;;
8331;SDS011;4203;48.144;14.118;2023-01-16T05:45:47;3.37;;;3.03;;
8331;SDS011;4203;48.144;14.118;2023-01-16T05:48:16;3.23;;;2.97;;
8331;SDS011;4203;48.144;14.118;2023-01-16T05:50:43;3.53;;;3.23;;
8331;SDS011;4203;48.144;14.118;2023-01-16T05:53:10;3.50;;;3.27;;
8331;SDS011;4203;48.144;14.118;2023-01-16T05:55:39;3.90;;;3.60;;
8331;SDS011;4203;48.144;14.118;2023-01-16T05:58:17;3.70;;;3.40;;
8331;SDS011;4203;48.144;14.118;2023-01-16T06:00:44;3.60;;;3.30;;
8331;SDS011;4203;48.144;14.118;2023-01-16T06:03:11;3.70;;;3.40;;
8331;SDS011;4203;48.144;14.118;2023-01-16T06:05:42;4.00;;;3.57;;
8331;SDS011;4203;48.144;14.118;2023-01-16T06:08:10;5.47;;;3.70;;
8331;SDS011;4203;48.144;14.118;2023-01-16T06:10:37;4.47;;;4.07;;
8331;SDS011;4203;48.144;14.118;2023-01-16T06:13:04;4.20;;;3.77;;
8331;SDS011;4203;48.144;14.118;2023-01-16T06:15:32;6.70;;;3.90;;
8331;SDS011;4203;48.144;14.118;2023-01-16T06:17:59;5.83;;;4.30;;
8331;SDS011;4203;48.144;14.118;2023-01-16T06:20:26;5.83;;;4.67;;
8331;SDS011;4203;48.144;14.118;2023-01-16T06:22:55;4.80;;;4.40;;
8331;SDS011;4203;48.144;14.118;2023-01-16T06:25:22;4.93;;;4.57;;
8331;SDS011;4203;48.144;14.118;2023-01-16T06:27:49;4.77;;;4.30;;
8331;SDS011;4203;48.144;14.118;2023-01-16T06:30:17;5.37;;;4.70;;
8331;SDS011;4203;48.144;14.118;2023-01-16T06:32:47;5.50;;;5.00;;
8331;SDS011;4203;48.144;14.118;2023-01-16T06:35:15;6.47;;;4.93;;
8331;SDS011;4203;48.144;14.118;2023-01-16T06:37:44;5.63;;;5.07;;
8331;SDS011;4203;48.144;14.118;2023-01-16T06:40:13;6.37;;;4.67;;
8331;SDS011;4203;48.144;14.118;2023-01-16T06:42:40;5.23;;;4.73;;
8331;SDS011;4203;48.144;14.118;2023-01-16T06:45:08;5.70;;;5.20;;
8331;SDS011;4203;48.144;14.118;2023-01-16T06:47:35;5.50;;;5.00;;
8331;SDS011;4203;48.144;14.118;2023-01-16T06:50:03;6.30;;;5.33;;
8331;SDS011;4203;48.144;14.118;2023-01-16T06:52:31;5.57;;;5.07;;
8331;SDS011;4203;48.144;14.118;2023-01-16T06:55:00;5.67;;;4.80;;
8331;SDS011;4203;48.144;14.118;2023-01-16T06:57:28;5.97;;;5.03;;
8331;SDS011;4203;48.144;14.118;2023-01-16T06:59:55;5.63;;;5.10;;
8331;SDS011;4203;48.144;14.118;2023-01-16T07:02:22;4.80;;;4.40;;
8331;SDS011;4203;48.144;14.118;2023-01-16T07:04:50;5.20;;;4.80;;
8331;SDS011;4203;48.144;14.118;2023-01-16T07:07:17;5.73;;;5.23;;
8331;SDS011;4203;48.144;14.118;2023-01-16T07:09:44;6.50;;;5.20;;
8331;SDS011;4203;48.144;14.118;2023-01-16T07:12:11;6.07;;;5.40;;
8331;SDS011;4203;48.144;14.118;2023-01-16T07:14:40;5.90;;;5.37;;
8331;SDS011;4203;48.144;14.118;2023-01-16T07:17:25;8.50;;;5.43;;
8331;SDS011;4203;48.144;14.118;2023-01-16T07:20:12;6.13;;;5.53;;
8331;SDS011;4203;48.144;14.118;2023-01-16T07:22:56;6.43;;;5.50;;
8331;SDS011;4203;48.144;14.118;2023-01-16T07:25:25;8.30;;;5.90;;
8331;SDS011;4203;48.144;14.118;2023-01-16T07:27:57;11.93;;;6.50;;
8331;SDS011;4203;48.144;14.118;2023-01-16T07:30:26;6.07;;;5.47;;
8331;SDS011;4203;48.144;14.118;2023-01-16T07:32:53;6.43;;;5.83;;
8331;SDS011;4203;48.144;14.118;2023-01-16T07:35:21;7.90;;;6.43;;
8331;SDS011;4203;48.144;14.118;2023-01-16T07:37:48;7.03;;;6.33;;
8331;SDS011;4203;48.144;14.118;2023-01-16T07:40:17;7.00;;;6.30;;
8331;SDS011;4203;48.144;14.118;2023-01-16T07:42:44;8.30;;;6.73;;
8331;SDS011;4203;48.144;14.118;2023-01-16T07:45:11;6.60;;;6.00;;
8331;SDS011;4203;48.144;14.118;2023-01-16T07:47:41;6.23;;;5.63;;
8331;SDS011;4203;48.144;14.118;2023-01-16T07:50:09;7.83;;;5.97;;
8331;SDS011;4203;48.144;14.118;2023-01-16T07:52:37;6.60;;;6.00;;
8331;SDS011;4203;48.144;14.118;2023-01-16T07:55:05;6.43;;;5.83;;
8331;SDS011;4203;48.144;14.118;2023-01-16T07:57:34;13.57;;;6.13;;
8331;SDS011;4203;48.144;14.118;2023-01-16T08:00:03;6.53;;;5.90;;
8331;SDS011;4203;48.144;14.118;2023-01-16T08:02:31;6.30;;;5.60;;
8331;SDS011;4203;48.144;14.118;2023-01-16T08:04:59;6.87;;;5.60;;
8331;SDS011;4203;48.144;14.118;2023-01-16T08:07:27;6.63;;;4.70;;
8331;SDS011;4203;48.144;14.118;2023-01-16T08:09:54;5.33;;;4.83;;
8331;SDS011;4203;48.144;14.118;2023-01-16T08:12:21;5.17;;;4.67;;
8331;SDS011;4203;48.144;14.118;2023-01-16T08:14:48;5.23;;;4.73;;
8331;SDS011;4203;48.144;14.118;2023-01-16T08:17:15;5.60;;;5.10;;
8331;SDS011;4203;48.144;14.118;2023-01-16T08:19:43;5.20;;;4.70;;
8331;SDS011;4203;48.144;14.118;2023-01-16T08:22:11;5.20;;;4.70;;
8331;SDS011;4203;48.144;14.118;2023-01-16T08:24:38;4.80;;;4.33;;
8331;SDS011;4203;48.144;14.118;2023-01-16T08:27:08;4.23;;;3.83;;
8331;SDS011;4203;48.144;14.118;2023-01-16T08:29:35;5.00;;;4.10;;
8331;SDS011;4203;48.144;14.118;2023-01-16T08:32:02;4.23;;;3.90;;
8331;SDS011;4203;48.144;14.118;2023-01-16T08:34:29;4.10;;;3.63;;
8331;SDS011;4203;48.144;14.118;2023-01-16T08:36:56;4.10;;;3.70;;
8331;SDS011;4203;48.144;14.118;2023-01-16T08:39:25;3.60;;;3.40;;
8331;SDS011;4203;48.144;14.118;2023-01-16T08:41:52;3.40;;;3.10;;
8331;SDS011;4203;48.144;14.118;2023-01-16T08:44:36;3.00;;;2.80;;
8331;SDS011;4203;48.144;14.118;2023-01-16T08:47:21;3.27;;;2.97;;
8331;SDS011;4203;48.144;14.118;2023-01-16T08:50:09;3.73;;;2.37;;
8331;SDS011;4203;48.144;14.118;2023-01-16T08:52:55;2.57;;;2.37;;
8331;SDS011;4203;48.144;14.118;2023-01-16T08:55:26;2.80;;;2.60;;
8331;SDS011;4203;48.144;14.118;2023-01-16T08:57:54;4.40;;;2.57;;
8331;SDS011;4203;48.144;14.118;2023-01-16T09:00:24;2.00;;;1.90;;
8331;SDS011;4203;48.144;14.118;2023-01-16T09:02:52;2.00;;;1.90;;
8331;SDS011;4203;48.144;14.118;2023-01-16T09:05:21;1.97;;;1.77;;
8331;SDS011;4203;48.144;14.118;2023-01-16T09:07:49;1.80;;;1.70;;
8331;SDS011;4203;48.144;14.118;2023-01-16T09:10:17;1.90;;;1.80;;
8331;SDS011;4203;48.144;14.118;2023-01-16T09:12:45;1.60;;;1.50;;
8331;SDS011;4203;48.144;14.118;2023-01-16T09:15:30;1.27;;;1.20;;
8331;SDS011;4203;48.144;14.118;2023-01-16T09:17:58;1.48;;;1.38;;
8331;SDS011;4203;48.144;14.118;2023-01-16T09:20:25;1.13;;;1.13;;
8331;SDS011;4203;48.144;14.118;2023-01-16T09:22:56;2.22;;;1.30;;
8331;SDS011;4203;48.144;14.118;2023-01-16T09:25:24;1.17;;;1.10;;
8331;SDS011;4203;48.144;14.118;2023-01-16T09:27:52;1.30;;;1.30;;
8331;SDS011;4203;48.144;14.118;2023-01-16T09:30:20;2.92;;;1.15;;
8331;SDS011;4203;48.144;14.118;2023-01-16T09:32:47;1.33;;;1.23;;
8331;SDS011;4203;48.144;14.118;2023-01-16T09:35:15;1.33;;;1.10;;
8331;SDS011;4203;48.144;14.118;2023-01-16T09:37:42;1.00;;;1.00;;
8331;SDS011;4203;48.144;14.118;2023-01-16T09:40:11;1.25;;;1.13;;
8331;SDS011;4203;48.144;14.118;2023-01-16T09:42:49;1.00;;;1.00;;
8331;SDS011;4203;48.144;14.118;2023-01-16T09:45:52;1.23;;;1.13;;
8331;SDS011;4203;48.144;14.118;2023-01-16T09:48:23;3.17;;;1.35;;
8331;SDS011;4203;48.144;14.118;2023-01-16T09:50:54;1.92;;;1.45;;
8331;SDS011;4203;48.144;14.118;2023-01-16T09:56:28;1.20;;;1.20;;
8331;SDS011;4203;48.144;14.118;2023-01-16T09:59:19;1.02;;;1.02;;
8331;SDS011;4203;48.144;14.118;2023-01-16T10:01:55;1.65;;;1.00;;
8331;SDS011;4203;48.144;14.118;2023-01-16T10:04:27;0.82;;;0.70;;
8331;SDS011;4203;48.144;14.118;2023-01-16T10:09:59;1.05;;;0.85;;
8331;SDS011;4203;48.144;14.118;2023-01-16T10:12:35;0.70;;;0.70;;
8331;SDS011;4203;48.144;14.118;2023-01-16T10:15:09;0.75;;;0.75;;
8331;SDS011;4203;48.144;14.118;2023-01-16T10:17:49;0.68;;;0.68;;
8331;SDS011;4203;48.144;14.118;2023-01-16T10:20:32;2.00;;;0.73;;
8331;SDS011;4203;48.144;14.118;2023-01-16T10:23:25;0.63;;;0.63;;
8331;SDS011;4203;48.144;14.118;2023-01-16T10:26:06;0.50;;;0.50;;
8331;SDS011;4203;48.144;14.118;2023-01-16T10:28:43;0.70;;;0.52;;
8331;SDS011;4203;48.144;14.118;2023-01-16T10:31:20;1.45;;;0.60;;
8331;SDS011;4203;48.144;14.118;2023-01-16T10:33:53;1.27;;;0.63;;
8331;SDS011;4203;48.144;14.118;2023-01-16T10:36:25;0.32;;;0.32;;
8331;SDS011;4203;48.144;14.118;2023-01-16T10:38:56;0.50;;;0.50;;
8331;SDS011;4203;48.144;14.118;2023-01-16T10:41:26;0.40;;;0.40;;
8331;SDS011;4203;48.144;14.118;2023-01-16T10:44:25;2.80;;;2.60;;
8331;SDS011;4203;48.144;14.118;2023-01-16T10:47:14;3.15;;;2.28;;
8331;SDS011;4203;48.144;14.118;2023-01-16T10:50:01;9.65;;;8.07;;
8331;SDS011;4203;48.144;14.118;2023-01-16T10:52:29;2.40;;;1.70;;
8331;SDS011;4203;48.144;14.118;2023-01-16T10:54:58;4.30;;;3.65;;
8331;SDS011;4203;48.144;14.118;2023-01-16T10:57:26;2.47;;;1.20;;
8331;SDS011;4203;48.144;14.118;2023-01-16T10:59:55;1.08;;;0.60;;
8331;SDS011;4203;48.144;14.118;2023-01-16T11:02:28;0.65;;;0.35;;
8331;SDS011;4203;48.144;14.118;2023-01-16T11:04:58;0.93;;;0.68;;
8331;SDS011;4203;48.144;14.118;2023-01-16T11:07:29;5.47;;;0.63;;
8331;SDS011;4203;48.144;14.118;2023-01-16T11:09:56;0.28;;;0.22;;
8331;SDS011;4203;48.144;14.118;2023-01-16T11:12:28;0.40;;;0.30;;
8331;SDS011;4203;48.144;14.118;2023-01-16T11:15:16;0.40;;;0.40;;
8331;SDS011;4203;48.144;14.118;2023-01-16T11:18:17;0.30;;;0.30;;
8331;SDS011;4203;48.144;14.118;2023-01-16T11:20:56;0.60;;;0.60;;
8331;SDS011;4203;48.144;14.118;2023-01-16T11:23:27;0.28;;;0.28;;
8331;SDS011;4203;48.144;14.118;2023-01-16T11:26:03;0.20;;;0.20;;
8331;SDS011;4203;48.144;14.118;2023-01-16T11:28:32;0.68;;;0.40;;
8331;SDS011;4203;48.144;14.118;2023-01-16T11:31:02;2.97;;;0.50;;
8331;SDS011;4203;48.144;14.118;2023-01-16T11:33:33;0.20;;;0.20;;
8331;SDS011;4203;48.144;14.118;2023-01-16T11:36:04;0.30;;;0.30;;
8331;SDS011;4203;48.144;14.118;2023-01-16T11:38:35;0.30;;;0.30;;
8331;SDS011;4203;48.144;14.118;2023-01-16T11:41:05;0.30;;;0.30;;
8331;SDS011;4203;48.144;14.118;2023-01-16T11:43:34;0.38;;;0.20;;
8331;SDS011;4203;48.144;14.118;2023-01-16T11:46:34;0.38;;;0.25;;
8331;SDS011;4203;48.144;14.118;2023-01-16T11:49:04;0.15;;;0.15;;
8331;SDS011;4203;48.144;14.118;2023-01-16T11:51:41;0.35;;;0.20;;
8331;SDS011;4203;48.144;14.118;2023-01-16T11:54:13;0.95;;;0.30;;
8331;SDS011;4203;48.144;14.118;2023-01-16T11:56:49;0.55;;;0.40;;
8331;SDS011;4203;48.144;14.118;2023-01-16T11:59:36;0.32;;;0.32;;
8331;SDS011;4203;48.144;14.118;2023-01-16T12:05:17;0.60;;;0.60;;
8331;SDS011;4203;48.144;14.118;2023-01-16T12:08:21;1.35;;;0.30;;
8331;SDS011;4203;48.144;14.118;2023-01-16T12:11:04;0.50;;;0.50;;
8331;SDS011;4203;48.144;14.118;2023-01-16T12:13:35;1.10;;;0.50;;
8331;SDS011;4203;48.144;14.118;2023-01-16T12:16:26;1.10;;;0.50;;
8331;SDS011;4203;48.144;14.118;2023-01-16T12:19:09;0.40;;;0.40;;
8331;SDS011;4203;48.144;14.118;2023-01-16T12:21:53;0.35;;;0.35;;
8331;SDS011;4203;48.144;14.118;2023-01-16T12:24:28;0.38;;;0.38;;
8331;SDS011;4203;48.144;14.118;2023-01-16T12:27:08;0.85;;;0.55;;
8331;SDS011;4203;48.144;14.118;2023-01-16T12:29:48;0.35;;;0.28;;
8331;SDS011;4203;48.144;14.118;2023-01-16T12:32:34;0.55;;;0.55;;
8331;SDS011;4203;48.144;14.118;2023-01-16T12:35:26;0.60;;;0.60;;
8331;SDS011;4203;48.144;14.118;2023-01-16T12:38:12;0.40;;;0.40;;
8331;SDS011;4203;48.144;14.118;2023-01-16T12:40:47;0.50;;;0.50;;
8331;SDS011;4203;48.144;14.118;2023-01-16T12:43:43;0.40;;;0.40;;
8331;SDS011;4203;48.144;14.118;2023-01-16T12:46:19;1.00;;;0.45;;
8331;SDS011;4203;48.144;14.118;2023-01-16T12:48:56;0.32;;;0.32;;
8331;SDS011;4203;48.144;14.118;2023-01-16T12:51:38;0.70;;;0.50;;
8331;SDS011;4203;48.144;14.118;2023-01-16T12:54:20;0.30;;;0.30;;
8331;SDS011;4203;48.144;14.118;2023-01-16T12:57:18;0.40;;;0.40;;
8331;SDS011;4203;48.144;14.118;2023-01-16T13:00:08;0.75;;;0.55;;
8331;SDS011;4203;48.144;14.118;2023-01-16T13:02:41;0.63;;;0.43;;
8331;SDS011;4203;48.144;14.118;2023-01-16T13:05:15;0.50;;;0.50;;
8331;SDS011;4203;48.144;14.118;2023-01-16T13:07:47;1.45;;;0.40;;
8331;SDS011;4203;48.144;14.118;2023-01-16T13:10:18;0.40;;;0.40;;
8331;SDS011;4203;48.144;14.118;2023-01-16T13:13:10;0.40;;;0.40;;
8331;SDS011;4203;48.144;14.118;2023-01-16T13:15:52;0.40;;;0.40;;
8331;SDS011;4203;48.144;14.118;2023-01-16T13:18:26;1.88;;;0.35;;
8331;SDS011;4203;48.144;14.118;2023-01-16T13:20:56;0.30;;;0.30;;
8331;SDS011;4203;48.144;14.118;2023-01-16T13:23:27;0.30;;;0.30;;
8331;SDS011;4203;48.144;14.118;2023-01-16T13:25:58;1.17;;;0.65;;
8331;SDS011;4203;48.144;14.118;2023-01-16T13:28:36;0.35;;;0.28;;
8331;SDS011;4203;48.144;14.118;2023-01-16T13:31:13;0.20;;;0.20;;
8331;SDS011;4203;48.144;14.118;2023-01-16T13:33:46;0.30;;;0.30;;
8331;SDS011;4203;48.144;14.118;2023-01-16T13:36:25;0.20;;;0.20;;
8331;SDS011;4203;48.144;14.118;2023-01-16T13:39:22;0.20;;;0.20;;
8331;SDS011;4203;48.144;14.118;2023-01-16T13:42:05;0.32;;;0.28;;
8331;SDS011;4203;48.144;14.118;2023-01-16T13:44:37;0.20;;;0.20;;
8331;SDS011;4203;48.144;14.118;2023-01-16T13:47:27;1.00;;;0.30;;
8331;SDS011;4203;48.144;14.118;2023-01-16T13:50:01;0.22;;;0.22;;
8331;SDS011;4203;48.144;14.118;2023-01-16T13:52:32;1.98;;;0.40;;
8331;SDS011;4203;48.144;14.118;2023-01-16T13:55:00;1.85;;;0.38;;
8331;SDS011;4203;48.144;14.118;2023-01-16T13:57:31;0.30;;;0.30;;
8331;SDS011;4203;48.144;14.118;2023-01-16T14:00:00;0.30;;;0.30;;
8331;SDS011;4203;48.144;14.118;2023-01-16T14:02:41;0.28;;;0.28;;
8331;SDS011;4203;48.144;14.118;2023-01-16T14:05:22;0.65;;;0.30;;
8331;SDS011;4203;48.144;14.118;2023-01-16T14:08:17;0.40;;;0.40;;
8331;SDS011;4203;48.144;14.118;2023-01-16T14:11:14;0.50;;;0.50;;
8331;SDS011;4203;48.144;14.118;2023-01-16T14:13:50;0.73;;;0.32;;
8331;SDS011;4203;48.144;14.118;2023-01-16T14:17:15;0.63;;;0.43;;
8331;SDS011;4203;48.144;14.118;2023-01-16T14:19:52;0.70;;;0.40;;
8331;SDS011;4203;48.144;14.118;2023-01-16T14:22:22;0.73;;;0.60;;
8331;SDS011;4203;48.144;14.118;2023-01-16T14:25:16;0.43;;;0.43;;
8331;SDS011;4203;48.144;14.118;2023-01-16T14:27:48;0.90;;;0.90;;
8331;SDS011;4203;48.144;14.118;2023-01-16T14:30:18;0.73;;;0.73;;
8331;SDS011;4203;48.144;14.118;2023-01-16T14:32:50;0.85;;;0.60;;
8331;SDS011;4203;48.144;14.118;2023-01-16T14:35:22;0.50;;;0.50;;
8331;SDS011;4203;48.144;14.118;2023-01-16T14:37:56;4.85;;;0.98;;
8331;SDS011;4203;48.144;14.118;2023-01-16T14:40:28;1.00;;;0.63;;
8331;SDS011;4203;48.144;14.118;2023-01-16T14:43:16;1.05;;;0.57;;
8331;SDS011;4203;48.144;14.118;2023-01-16T14:46:25;0.70;;;0.70;;
8331;SDS011;4203;48.144;14.118;2023-01-16T14:58:30;1.10;;;0.70;;
8331;SDS011;4203;48.144;14.118;2023-01-16T15:01:00;0.80;;;0.70;;
8331;SDS011;4203;48.144;14.118;2023-01-16T15:03:52;1.00;;;0.80;;
8331;SDS011;4203;48.144;14.118;2023-01-16T15:06:20;0.60;;;0.60;;
8331;SDS011;4203;48.144;14.118;2023-01-16T15:08:50;0.70;;;0.70;;
8331;SDS011;4203;48.144;14.118;2023-01-16T15:11:21;2.87;;;0.90;;
8331;SDS011;4203;48.144;14.118;2023-01-16T15:14:03;2.33;;;0.70;;
8331;SDS011;4203;48.144;14.118;2023-01-16T15:16:59;0.83;;;0.83;;
8331;SDS011;4203;48.144;14.118;2023-01-16T15:19:58;1.00;;;1.00;;
8331;SDS011;4203;48.144;14.118;2023-01-16T15:22:45;0.90;;;0.90;;
8331;SDS011;4203;48.144;14.118;2023-01-16T15:25:20;1.20;;;1.10;;
8331;SDS011;4203;48.144;14.118;2023-01-16T15:28:07;1.73;;;0.97;;
8331;SDS011;4203;48.144;14.118;2023-01-16T15:30:39;1.63;;;1.20;;
8331;SDS011;4203;48.144;14.118;2023-01-16T15:33:20;4.80;;;3.33;;
8331;SDS011;4203;48.144;14.118;2023-01-16T15:36:13;7.40;;;3.93;;
8331;SDS011;4203;48.144;14.118;2023-01-16T15:38:44;6.37;;;3.47;;
8331;SDS011;4203;48.144;14.118;2023-01-16T15:41:13;3.37;;;2.60;;
8331;SDS011;4203;48.144;14.118;2023-01-16T15:44:08;2.20;;;1.70;;
8331;SDS011;4203;48.144;14.118;2023-01-16T15:46:57;1.30;;;1.20;;
8331;SDS011;4203;48.144;14.118;2023-01-16T15:49:45;1.10;;;1.10;;
8331;SDS011;4203;48.144;14.118;2023-01-16T15:52:21;1.10;;;1.00;;
8331;SDS011;4203;48.144;14.118;2023-01-16T15:54:52;1.30;;;1.20;;
8331;SDS011;4203;48.144;14.118;2023-01-16T15:57:21;2.07;;;1.80;;
8331;SDS011;4203;48.144;14.118;2023-01-16T15:59:50;5.07;;;3.97;;
8331;SDS011;4203;48.144;14.118;2023-01-16T16:02:19;14.60;;;9.93;;
8331;SDS011;4203;48.144;14.118;2023-01-16T16:04:48;5.13;;;4.73;;